Time;durP1;ratioP1;P1;durP2;ratioP2;P2;SDS_P1;SDS_P2;PMS_P1;PMS_P2;Temp;Humidity;BMP_temperature;BMP_pressure;BME280_temperature;BME280_humidity;BME280_pressure;Samples;Min_cycle;Max_cycle;Signal;HPM_P1;HPM_P2
2023/10/06 00:02:00;;;;;;;3.67;2.10;;;;;;;14.68;83.35;96490.03;4347856;32;20185;-60
2023/10/06 00:04:26;;;;;;;3.60;2.57;;;;;;;14.76;82.35;96485.88;4342161;32;20207;-60
2023/10/06 00:06:53;;;;;;;2.27;2.17;;;;;;;14.51;84.12;96494.28;4330446;32;20213;-60
2023/10/06 00:09:43;;;;;;;1.47;1.47;;;;;;;14.36;83.25;96476.56;4351840;32;20204;-61
2023/10/06 00:12:13;;;;;;;5.20;2.93;;;;;;;14.47;82.60;96483.38;4354502;32;20298;-61
2023/10/06 00:14:43;;;;;;;2.00;1.90;;;;;;;14.53;83.51;96489.47;4359182;32;20184;-61
2023/10/06 00:17:28;;;;;;;2.57;2.00;;;;;;;14.64;82.71;96486.34;4359891;32;20210;-61
2023/10/06 00:19:56;;;;;;;3.90;2.40;;;;;;;14.59;83.36;96493.63;4352369;32;20203;-61
2023/10/06 00:22:26;;;;;;;2.30;1.87;;;;;;;14.54;83.15;96483.03;4354150;32;20186;-61
2023/10/06 00:24:59;;;;;;;2.43;1.47;;;;;;;14.47;82.97;96491.41;4355341;32;20191;-61
2023/10/06 00:27:29;;;;;;;1.83;1.73;;;;;;;14.35;83.19;96483.78;4319540;32;20209;-60
2023/10/06 00:29:58;;;;;;;4.77;2.47;;;;;;;14.26;83.42;96490.06;4332423;32;20209;-61
2023/10/06 00:35:08;;;;;;;1.30;1.23;;;;;;;14.59;83.29;96486.41;4355862;32;20193;-61
2023/10/06 00:37:36;;;;;;;2.50;2.20;;;;;;;14.54;83.45;96483.03;4351894;32;20271;-61
2023/10/06 00:40:27;;;;;;;2.73;2.13;;;;;;;14.15;84.02;96481.38;4351508;32;20223;-62
2023/10/06 00:42:56;;;;;;;2.20;2.10;;;;;;;14.00;85.11;96484.25;4349065;32;20184;-62
2023/10/06 00:45:25;;;;;;;1.10;1.10;;;;;;;14.00;84.29;96474.38;4323637;32;20185;-61
2023/10/06 00:47:55;;;;;;;1.63;1.53;;;;;;;13.98;85.62;96486.41;4334118;32;20242;-62
2023/10/06 00:50:24;;;;;;;2.27;2.13;;;;;;;13.95;84.68;96476.31;4349876;32;20244;-61
2023/10/06 00:52:55;;;;;;;4.57;2.50;;;;;;;13.97;85.23;96484.81;4346575;32;20243;-62
2023/10/06 00:55:23;;;;;;;2.90;1.60;;;;;;;13.77;84.32;96478.66;4343091;32;20181;-61
2023/10/06 00:57:53;;;;;;;3.03;2.83;;;;;;;13.84;84.46;96472.97;4359977;32;20189;-61
2023/10/06 01:00:25;;;;;;;3.00;1.17;;;;;;;14.11;84.48;96469.72;4360352;32;20182;-61
2023/10/06 01:02:51;;;;;;;1.70;1.60;;;;;;;14.08;83.07;96475.62;4352568;32;20189;-62
2023/10/06 01:05:20;;;;;;;2.03;1.93;;;;;;;14.07;83.51;96472.16;4367431;32;20206;-62
2023/10/06 01:07:46;;;;;;;1.23;1.23;;;;;;;14.01;83.96;96477.84;4356633;32;20220;-62
2023/10/06 01:10:17;;;;;;;1.60;1.50;;;;;;;13.90;84.65;96481.72;4345981;32;20343;-62
2023/10/06 01:12:43;;;;;;;6.57;1.70;;;;;;;14.07;84.54;96484.69;4332171;32;20268;-62
2023/10/06 01:15:16;;;;;;;1.93;1.83;;;;;;;14.05;82.67;96482.31;4320018;32;20205;-61
2023/10/06 01:17:44;;;;;;;3.53;1.70;;;;;;;13.70;83.57;96472.09;4332070;32;20301;-62
2023/10/06 01:20:33;;;;;;;1.97;1.87;;;;;;;13.77;84.46;96475.97;4342343;32;20236;-60
2023/10/06 01:22:59;;;;;;;2.83;2.53;;;;;;;13.75;84.03;96478.13;4351189;32;20299;-61
2023/10/06 01:25:27;;;;;;;3.50;2.03;;;;;;;13.88;84.21;96476.66;4342467;32;20203;-60
2023/10/06 01:27:54;;;;;;;2.57;2.10;;;;;;;14.05;83.38;96474.31;4356012;32;20211;-61
2023/10/06 01:30:22;;;;;;;6.17;2.27;;;;;;;14.03;83.76;96473.81;4363303;32;20185;-60
2023/10/06 01:32:50;;;;;;;1.33;1.30;;;;;;;13.95;83.51;96471.75;4337997;32;20192;-61
2023/10/06 01:35:18;;;;;;;2.03;1.87;;;;;;;13.93;83.84;96473.13;4358557;32;20185;-61
2023/10/06 01:37:44;;;;;;;1.73;1.63;;;;;;;14.00;84.12;96476.25;4322588;32;20209;-61
2023/10/06 01:42:58;;;;;;;1.30;1.13;;;;;;;13.41;85.29;96472.91;4341690;32;20181;-61
2023/10/06 01:45:26;;;;;;;1.03;0.80;;;;;;;13.50;84.63;96465.09;4345108;32;20177;-61
2023/10/06 01:48:22;;;;;;;1.73;1.63;;;;;;;13.70;84.58;96470.22;4341503;32;20203;-61
2023/10/06 01:50:44;;;;;;;1.70;1.60;;;;;;;13.59;83.52;96465.25;4343091;32;20201;-61
2023/10/06 01:53:11;;;;;;;6.97;2.77;;;;;;;13.77;83.94;96465.31;4350860;32;20212;-61
2023/10/06 01:55:38;;;;;;;1.17;1.17;;;;;;;13.74;83.48;96471.22;4330707;32;20232;-60
2023/10/06 01:58:11;;;;;;;2.73;2.13;;;;;;;13.97;83.78;96474.16;4345508;32;20196;-60
2023/10/06 02:00:38;;;;;;;4.27;2.23;;;;;;;13.84;83.97;96469.50;4329328;32;20240;-60
2023/10/06 02:03:10;;;;;;;3.27;1.67;;;;;;;13.72;84.63;96460.03;4326693;32;20240;-60
2023/10/06 02:05:40;;;;;;;2.37;2.17;;;;;;;13.59;83.92;96468.72;4333020;32;20223;-61
2023/10/06 02:08:09;;;;;;;1.03;1.03;;;;;;;13.50;83.76;96464.31;4338315;32;20216;-60
2023/10/06 02:10:37;;;;;;;2.00;1.57;;;;;;;13.36;84.70;96462.28;4353854;32;20212;-61
2023/10/06 02:13:07;;;;;;;1.90;1.37;;;;;;;13.55;84.80;96461.56;4355197;32;20245;-61
2023/10/06 02:15:33;;;;;;;1.53;1.47;;;;;;;13.49;83.55;96460.84;4347541;32;20185;-60
2023/10/06 02:17:58;;;;;;;4.53;2.20;;;;;;;13.43;85.01;96453.97;4302551;32;20239;-60
2023/10/06 02:22:52;;;;;;;1.77;1.67;;;;;;;13.58;85.06;96451.13;4351807;32;20200;-60
2023/10/06 02:25:31;;;;;;;1.50;1.40;;;;;;;13.44;84.17;96450.22;4345289;32;20185;-60
2023/10/06 02:27:59;;;;;;;1.83;1.43;;;;;;;13.52;83.71;96449.59;4337942;32;20190;-61
2023/10/06 02:30:37;;;;;;;7.17;1.90;;;;;;;13.80;84.48;96449.81;4358628;32;20211;-61
2023/10/06 02:33:08;;;;;;;1.77;1.67;;;;;;;13.62;83.54;96454.03;4332118;32;20193;-61
2023/10/06 02:35:34;;;;;;;5.33;2.40;;;;;;;13.18;85.02;96452.34;4343121;32;20247;-61
2023/10/06 02:38:05;;;;;;;1.20;1.10;;;;;;;13.24;85.38;96450.44;4327957;32;20192;-61
2023/10/06 02:40:37;;;;;;;1.83;1.73;;;;;;;13.23;85.14;96454.19;4346460;32;20177;-62
2023/10/06 02:43:03;;;;;;;1.77;1.63;;;;;;;13.18;85.52;96452.34;4353028;32;20186;-62
2023/10/06 02:45:31;;;;;;;0.93;0.93;;;;;;;13.43;84.28;96451.31;4367263;32;20218;-61
2023/10/06 02:47:59;;;;;;;1.00;1.00;;;;;;;13.56;83.06;96452.50;4338179;32;20251;-61
2023/10/06 02:50:25;;;;;;;1.53;1.43;;;;;;;13.49;83.96;96455.53;4337600;32;20204;-61
2023/10/06 02:52:53;;;;;;;1.20;1.20;;;;;;;13.50;83.22;96459.78;4365397;32;20223;-60
2023/10/06 02:55:31;;;;;;;1.37;1.30;;;;;;;13.61;82.66;96453.25;4344377;32;20197;-60
2023/10/06 02:57:58;;;;;;;2.83;1.97;;;;;;;13.31;83.08;96453.56;4366237;32;20247;-60
2023/10/06 03:02:55;;;;;;;1.80;1.70;;;;;;;13.47;84.35;96440.87;4342530;32;20201;-61
2023/10/06 03:05:33;;;;;;;1.50;1.40;;;;;;;13.20;84.36;96441.41;4337441;32;20254;-60
2023/10/06 03:08:08;;;;;;;1.43;1.40;;;;;;;13.49;83.15;96444.84;4355142;32;20195;-61
2023/10/06 03:10:45;;;;;;;1.13;1.13;;;;;;;13.45;83.87;96441.16;4368785;32;20267;-61
2023/10/06 03:13:14;;;;;;;2.57;1.67;;;;;;;13.55;82.76;96446.38;4353083;32;20200;-61
2023/10/06 03:15:47;;;;;;;3.93;1.70;;;;;;;13.37;82.64;96439.09;4349304;32;20208;-61
2023/10/06 03:18:14;;;;;;;2.17;1.97;;;;;;;13.37;84.52;96442.56;4341797;32;20285;-60
2023/10/06 03:20:47;;;;;;;1.30;1.30;;;;;;;13.53;83.47;96447.72;4354204;32;20188;-61
2023/10/06 03:23:26;;;;;;;2.23;2.13;;;;;;;13.26;82.71;96438.44;4363974;32;20636;-60
2023/10/06 03:25:56;;;;;;;1.70;1.27;;;;;;;13.39;82.25;96437.75;4366943;32;20207;-61
2023/10/06 03:28:37;;;;;;;3.47;1.67;;;;;;;13.31;83.45;96440.22;4363586;32;20296;-60
2023/10/06 03:31:35;;;;;;;0.77;0.77;;;;;;;13.24;83.64;96434.47;4376595;32;20203;-61
2023/10/06 03:33:55;;;;;;;0.87;0.87;;;;;;;13.15;84.24;96442.25;4336377;32;20185;-61
2023/10/06 03:36:45;;;;;;;1.00;1.00;;;;;;;13.19;81.45;96437.97;4345704;32;20239;-61
2023/10/06 03:39:21;;;;;;;1.23;1.17;;;;;;;13.13;81.05;96438.25;4348484;32;20185;-60
2023/10/06 03:41:50;;;;;;;1.53;0.83;;;;;;;12.97;84.05;96441.06;4344800;32;20201;-61
2023/10/06 03:44:25;;;;;;;1.87;1.77;;;;;;;12.97;81.99;96453.59;4370726;32;20358;-61
2023/10/06 03:47:00;;;;;;;2.00;1.90;;;;;;;12.82;84.16;96437.75;4348059;32;20185;-61
2023/10/06 03:49:26;;;;;;;0.90;0.90;;;;;;;13.11;82.85;96451.06;4329897;32;20203;-60
2023/10/06 03:51:56;;;;;;;0.83;0.83;;;;;;;13.13;82.71;96449.69;4345505;32;20207;-60
2023/10/06 03:54:24;;;;;;;1.20;1.17;;;;;;;12.95;82.84;96459.19;4359704;32;20230;-61
2023/10/06 03:56:50;;;;;;;0.87;0.87;;;;;;;12.60;84.39;96451.50;4374171;32;20196;-61
2023/10/06 03:59:16;;;;;;;2.60;1.63;;;;;;;12.90;84.77;96447.78;4377470;32;20184;-61
2023/10/06 04:01:44;;;;;;;1.13;1.13;;;;;;;13.05;83.75;96445.81;4370520;32;20185;-61
2023/10/06 04:04:21;;;;;;;1.87;1.77;;;;;;;12.98;83.48;96444.53;4370637;32;20189;-61
2023/10/06 04:06:47;;;;;;;1.50;1.40;;;;;;;12.78;84.58;96450.81;4363764;32;20188;-61
2023/10/06 04:09:19;;;;;;;1.17;1.17;;;;;;;12.96;83.70;96444.81;4351459;32;20256;-60
2023/10/06 04:11:47;;;;;;;2.00;1.00;;;;;;;13.17;83.54;96455.31;4356062;32;20193;-60
2023/10/06 04:14:13;;;;;;;1.10;1.10;;;;;;;12.95;81.28;96453.88;4362131;32;20235;-60
2023/10/06 04:16:45;;;;;;;1.07;1.07;;;;;;;13.13;82.27;96444.38;4368466;32;20247;-61
2023/10/06 04:19:15;;;;;;;1.33;1.30;;;;;;;12.89;82.80;96439.00;4336327;32;20244;-60
2023/10/06 04:21:42;;;;;;;1.50;1.37;;;;;;;13.20;82.91;96436.88;4368765;32;20245;-61
2023/10/06 04:24:14;;;;;;;1.23;1.23;;;;;;;12.88;82.77;96445.44;4362132;32;20258;-61
2023/10/06 04:26:41;;;;;;;1.37;1.37;;;;;;;12.71;84.24;96445.00;4345052;32;20189;-60
2023/10/06 04:29:13;;;;;;;1.13;1.07;;;;;;;12.59;81.39;96444.59;4297765;32;20222;-60
2023/10/06 04:31:38;;;;;;;1.17;1.17;;;;;;;12.96;84.00;96444.00;4348176;32;20220;-60
2023/10/06 04:34:05;;;;;;;1.33;1.33;;;;;;;12.62;81.82;96450.16;4372369;32;20208;-60
2023/10/06 04:36:31;;;;;;;1.13;1.10;;;;;;;12.77;83.01;96451.91;4340288;32;20189;-60
2023/10/06 04:38:58;;;;;;;2.23;1.50;;;;;;;12.85;84.42;96445.97;4348598;32;20215;-60
2023/10/06 04:41:23;;;;;;;3.17;1.97;;;;;;;12.92;83.40;96443.78;4373668;32;20189;-60
2023/10/06 04:43:51;;;;;;;1.47;1.37;;;;;;;12.97;83.04;96449.06;4377186;32;20258;-61
2023/10/06 04:46:17;;;;;;;4.77;1.70;;;;;;;12.99;83.40;96441.59;4367505;32;20199;-61
2023/10/06 04:48:43;;;;;;;1.47;1.10;;;;;;;13.12;84.64;96439.31;4332118;32;20330;-60
2023/10/06 04:51:09;;;;;;;1.67;1.53;;;;;;;12.90;83.09;96442.47;4342892;32;20212;-61
2023/10/06 04:53:36;;;;;;;1.73;1.63;;;;;;;13.04;82.84;96440.75;4330362;32;20290;-61
2023/10/06 04:56:09;;;;;;;3.27;1.83;;;;;;;12.47;83.99;96439.59;4355877;32;20289;-61
2023/10/06 04:58:42;;;;;;;1.70;1.50;;;;;;;12.86;82.98;96436.91;4337566;32;20189;-61
2023/10/06 05:01:08;;;;;;;1.13;1.13;;;;;;;12.92;82.23;96433.13;4355566;32;20235;-61
2023/10/06 05:03:45;;;;;;;1.90;1.80;;;;;;;12.80;83.83;96434.56;4356429;32;20229;-62
2023/10/06 05:06:17;;;;;;;2.47;1.70;;;;;;;12.75;83.99;96432.75;4338474;32;20188;-61
2023/10/06 05:08:48;;;;;;;1.73;1.63;;;;;;;12.73;82.53;96419.69;4343068;32;20276;-61
2023/10/06 05:11:19;;;;;;;2.13;1.80;;;;;;;12.83;82.79;96418.03;4379900;32;20193;-61
2023/10/06 05:13:49;;;;;;;2.23;1.43;;;;;;;12.69;83.17;96418.66;4338055;32;20193;-62
2023/10/06 05:16:14;;;;;;;1.70;0.73;;;;;;;12.69;83.22;96412.53;4340397;32;20260;-61
2023/10/06 05:18:40;;;;;;;1.93;1.83;;;;;;;12.65;82.00;96417.66;4336402;32;20202;-62
2023/10/06 05:21:08;;;;;;;0.67;0.53;;;;;;;12.91;81.93;96415.53;4344022;32;20209;-61
2023/10/06 05:23:35;;;;;;;1.70;1.50;;;;;;;12.67;81.88;96422.72;4364514;32;20203;-61
2023/10/06 05:26:08;;;;;;;2.70;1.43;;;;;;;12.52;81.60;96428.13;4371974;32;20214;-60
2023/10/06 05:28:36;;;;;;;0.97;0.97;;;;;;;12.61;83.35;96418.50;4365792;32;20199;-61
2023/10/06 05:31:01;;;;;;;1.00;1.00;;;;;;;12.82;81.76;96427.91;4357808;32;20196;-60
2023/10/06 05:33:27;;;;;;;1.00;1.00;;;;;;;12.91;82.45;96439.50;4336301;32;20261;-61
2023/10/06 05:35:53;;;;;;;0.77;0.77;;;;;;;12.97;82.22;96430.41;4351268;32;20192;-61
2023/10/06 05:38:19;;;;;;;2.00;1.80;;;;;;;12.83;82.40;96432.16;4380500;32;20184;-61
2023/10/06 05:40:47;;;;;;;2.53;1.50;;;;;;;12.79;82.02;96436.44;4362938;32;20294;-61
2023/10/06 05:43:17;;;;;;;0.70;0.70;;;;;;;12.92;82.87;96433.13;4352537;32;20317;-61
2023/10/06 05:45:56;;;;;;;2.43;1.63;;;;;;;12.90;81.39;96427.28;4359766;32;20276;-61
2023/10/06 05:48:28;;;;;;;1.00;1.00;;;;;;;12.93;82.37;96432.03;4324264;32;20197;-61
2023/10/06 05:51:04;;;;;;;0.70;0.70;;;;;;;12.88;80.94;96433.97;4340153;32;20203;-61
2023/10/06 05:53:34;;;;;;;1.57;1.47;;;;;;;12.63;82.98;96435.78;4363382;32;20215;-61
2023/10/06 05:56:03;;;;;;;2.13;1.93;;;;;;;12.73;82.96;96441.00;4373347;32;20180;-61
2023/10/06 05:58:34;;;;;;;3.07;1.77;;;;;;;12.95;81.84;96437.88;4338898;32;20236;-60
2023/10/06 06:01:06;;;;;;;2.00;1.37;;;;;;;12.93;82.47;96448.03;4360714;32;20218;-61
2023/10/06 06:03:32;;;;;;;1.80;1.40;;;;;;;12.75;80.83;96443.38;4361397;32;20207;-61
2023/10/06 06:06:08;;;;;;;1.13;1.03;;;;;;;12.65;82.36;96449.59;4352770;32;20188;-61
2023/10/06 06:08:34;;;;;;;4.93;1.67;;;;;;;12.89;82.20;96449.66;4357134;32;20184;-61
2023/10/06 06:11:01;;;;;;;3.23;1.83;;;;;;;13.01;79.68;96447.44;4366148;32;20188;-60
2023/10/06 06:13:26;;;;;;;5.70;1.57;;;;;;;12.94;81.32;96446.94;4373721;32;20359;-60
2023/10/06 06:15:55;;;;;;;4.30;2.07;;;;;;;12.48;82.04;96454.50;4354416;32;20185;-61
2023/10/06 06:18:25;;;;;;;1.23;1.23;;;;;;;12.80;81.22;96448.69;4348877;32;20211;-61
2023/10/06 06:20:52;;;;;;;1.87;1.73;;;;;;;13.06;81.41;96446.59;4334673;32;20181;-61
2023/10/06 06:23:17;;;;;;;1.43;1.33;;;;;;;13.00;82.32;96461.81;4368127;32;20189;-61
2023/10/06 06:25:46;;;;;;;7.40;1.73;;;;;;;13.15;83.37;96460.91;4376648;32;20321;-61
2023/10/06 06:28:14;;;;;;;2.60;1.57;;;;;;;12.99;83.40;96464.75;4380353;32;20200;-61
2023/10/06 06:30:41;;;;;;;1.93;1.83;;;;;;;13.17;81.93;96471.28;4357281;32;20215;-61
2023/10/06 06:33:08;;;;;;;1.57;1.47;;;;;;;13.29;81.37;96466.41;4374978;32;20242;-61
2023/10/06 06:35:35;;;;;;;2.40;2.27;;;;;;;12.89;78.68;96462.16;4345015;32;20193;-61
2023/10/06 06:38:07;;;;;;;5.33;2.53;;;;;;;13.06;82.10;96458.03;4351567;32;20188;-61
2023/10/06 06:40:37;;;;;;;1.37;1.27;;;;;;;13.29;81.38;96463.72;4386051;32;20216;-61
2023/10/06 06:43:09;;;;;;;2.87;1.97;;;;;;;13.19;81.06;96469.12;4350051;32;20189;-61
2023/10/06 06:45:45;;;;;;;1.30;1.27;;;;;;;13.23;81.83;96475.50;4354773;32;20196;-61
2023/10/06 06:48:16;;;;;;;2.07;1.63;;;;;;;12.94;79.07;96473.59;4363331;32;20192;-61
2023/10/06 06:50:43;;;;;;;3.10;2.37;;;;;;;13.05;81.62;96469.78;4364287;32;20199;-61
2023/10/06 06:53:12;;;;;;;15.07;2.50;;;;;;;13.24;80.62;96477.09;4338891;32;20185;-61
2023/10/06 06:55:37;;;;;;;1.27;1.17;;;;;;;13.27;80.75;96487.19;4351796;32;20247;-61
2023/10/06 06:58:10;;;;;;;1.63;1.53;;;;;;;13.45;80.39;96481.16;4317667;32;20197;-61
2023/10/06 07:00:41;;;;;;;2.40;1.67;;;;;;;13.57;79.93;96486.87;4346864;32;20203;-62
2023/10/06 07:03:26;;;;;;;3.07;1.53;;;;;;;13.31;79.22;96494.31;4343971;32;20173;-61
2023/10/06 07:05:54;;;;;;;1.60;1.50;;;;;;;13.23;78.14;96496.81;4343390;32;20215;-61
2023/10/06 07:08:20;;;;;;;8.20;1.77;;;;;;;12.89;77.79;96494.94;4341283;32;20199;-60
2023/10/06 07:10:52;;;;;;;1.40;1.40;;;;;;;12.58;79.15;96504.22;4329779;32;20201;-61
2023/10/06 07:13:31;;;;;;;2.37;2.17;;;;;;;12.68;79.47;96498.81;4346933;32;20302;-61
2023/10/06 07:15:57;;;;;;;2.00;1.37;;;;;;;12.67;79.89;96498.03;4363927;32;20188;-61
2023/10/06 07:18:23;;;;;;;1.83;1.73;;;;;;;12.53;81.31;96488.28;4350868;32;20200;-61
2023/10/06 07:20:50;;;;;;;1.17;1.10;;;;;;;12.80;80.62;96488.63;4354005;32;20205;-61
2023/10/06 07:23:25;;;;;;;4.80;2.20;;;;;;;12.84;80.79;96489.66;4375305;32;20188;-60
2023/10/06 07:25:52;;;;;;;5.40;1.77;;;;;;;12.89;80.50;96481.59;4379340;32;20199;-61
2023/10/06 07:28:21;;;;;;;2.53;1.70;;;;;;;12.95;80.18;96479.72;4354202;32;20251;-61
2023/10/06 07:31:16;;;;;;;2.50;2.30;;;;;;;13.11;80.35;96486.50;4375237;32;20189;-61
2023/10/06 07:33:48;;;;;;;3.53;1.87;;;;;;;13.26;79.92;96491.72;4335973;32;20226;-61
2023/10/06 07:36:17;;;;;;;5.33;2.20;;;;;;;13.36;79.80;96496.94;4368566;32;20180;-60
2023/10/06 07:38:52;;;;;;;2.73;1.57;;;;;;;13.37;80.12;96487.09;4378344;32;20259;-61
2023/10/06 07:41:26;;;;;;;1.97;1.87;;;;;;;13.47;80.58;96495.00;4353439;32;20199;-61
2023/10/06 07:43:52;;;;;;;1.33;1.23;;;;;;;13.43;80.66;96491.28;4357743;32;20177;-60
2023/10/06 07:46:19;;;;;;;1.83;1.73;;;;;;;13.64;80.29;96486.53;4343959;32;20266;-61
2023/10/06 07:48:45;;;;;;;11.60;2.20;;;;;;;13.59;81.00;96498.06;4361306;32;20256;-61
2023/10/06 07:51:16;;;;;;;1.83;1.73;;;;;;;13.73;80.38;96495.50;4376597;32;20193;-60
2023/10/06 07:53:43;;;;;;;7.77;1.57;;;;;;;13.85;79.69;96490.56;4366726;32;20292;-61
2023/10/06 07:56:09;;;;;;;1.13;1.13;;;;;;;14.05;79.23;96495.66;4361634;32;20205;-61
2023/10/06 07:58:41;;;;;;;2.53;1.70;;;;;;;13.94;80.08;96496.06;4344914;32;20208;-61
2023/10/06 08:01:10;;;;;;;4.13;2.17;;;;;;;14.06;78.94;96493.78;4339674;32;20238;-61
2023/10/06 08:03:41;;;;;;;1.60;1.60;;;;;;;14.12;78.80;96494.53;4343912;32;20193;-61
2023/10/06 08:06:15;;;;;;;2.23;1.93;;;;;;;14.36;78.68;96489.91;4365721;32;20227;-61
2023/10/06 08:08:40;;;;;;;2.20;1.60;;;;;;;14.32;78.70;96488.91;4344199;32;20211;-60
2023/10/06 08:11:08;;;;;;;2.10;1.93;;;;;;;14.38;78.93;96483.19;4357475;32;20273;-60
2023/10/06 08:13:35;;;;;;;9.47;1.60;;;;;;;14.46;79.08;96484.47;4373152;32;20189;-61
2023/10/06 08:16:02;;;;;;;1.37;1.27;;;;;;;14.52;79.27;96483.31;4340601;32;20298;-62
2023/10/06 08:18:29;;;;;;;1.73;1.63;;;;;;;14.51;79.65;96483.62;4332819;32;20242;-62
2023/10/06 08:21:04;;;;;;;1.53;1.50;;;;;;;14.55;80.37;96476.62;4347030;32;20248;-62
2023/10/06 08:23:35;;;;;;;1.13;1.13;;;;;;;14.49;80.01;96481.22;4342552;32;20184;-60
2023/10/06 08:26:08;;;;;;;1.70;1.33;;;;;;;14.59;80.12;96480.28;4354626;32;20239;-61
2023/10/06 08:28:35;;;;;;;1.30;1.30;;;;;;;14.71;80.03;96485.97;4348013;32;20235;-61
2023/10/06 08:31:02;;;;;;;1.23;1.23;;;;;;;14.72;79.97;96480.34;4327596;32;20259;-60
2023/10/06 08:33:32;;;;;;;1.63;1.20;;;;;;;14.87;79.75;96478.53;4361724;32;20275;-62
2023/10/06 08:36:00;;;;;;;1.57;1.47;;;;;;;14.95;79.27;96473.31;4376823;32;20271;-63
2023/10/06 08:38:27;;;;;;;1.57;1.53;;;;;;;14.83;80.14;96472.97;4355150;32;20200;-62
2023/10/06 08:41:01;;;;;;;1.87;1.77;;;;;;;14.91;80.63;96466.16;4362875;32;20187;-61
2023/10/06 08:43:38;;;;;;;1.83;1.47;;;;;;;14.93;80.37;96464.78;4375732;32;20180;-62
2023/10/06 08:46:05;;;;;;;1.83;1.73;;;;;;;15.08;80.06;96459.19;4342948;32;20184;-62
2023/10/06 08:48:35;;;;;;;1.97;1.90;;;;;;;15.09;79.75;96462.66;4367963;32;20246;-61
2023/10/06 08:51:07;;;;;;;2.03;1.70;;;;;;;15.06;80.17;96455.22;4377044;32;20184;-63
2023/10/06 08:53:37;;;;;;;1.63;1.40;;;;;;;15.11;80.19;96455.13;4347120;32;20193;-64
2023/10/06 08:56:05;;;;;;;1.97;1.87;;;;;;;15.19;80.03;96450.97;4344412;32;20244;-64
2023/10/06 08:58:30;;;;;;;1.00;1.00;;;;;;;15.20;80.15;96452.56;4354951;32;20304;-64
2023/10/06 09:00:55;;;;;;;1.40;1.37;;;;;;;15.19;80.24;96448.31;4351604;32;20073;-63
2023/10/06 09:03:24;;;;;;;1.97;1.87;;;;;;;15.25;79.79;96449.81;4376022;32;20188;-63
2023/10/06 09:05:50;;;;;;;1.90;1.80;;;;;;;15.24;80.20;96442.88;4349882;32;20215;-64
2023/10/06 09:08:17;;;;;;;1.10;1.10;;;;;;;15.33;79.82;96444.59;4373607;32;20184;-64
2023/10/06 09:10:49;;;;;;;2.03;1.50;;;;;;;15.40;79.22;96442.28;4356539;32;20199;-63
2023/10/06 09:13:18;;;;;;;0.90;0.90;;;;;;;15.49;78.74;96439.72;4350614;32;20177;-63
2023/10/06 09:16:08;;;;;;;1.70;1.60;;;;;;;15.60;78.15;96441.13;4320995;32;20257;-64
2023/10/06 09:18:35;;;;;;;1.70;1.60;;;;;;;15.58;79.45;96431.84;4351226;32;20188;-64
2023/10/06 09:21:15;;;;;;;1.33;1.33;;;;;;;15.53;79.53;96430.03;4357697;32;20211;-63
2023/10/06 09:23:41;;;;;;;3.37;2.00;;;;;;;15.50;79.64;96432.50;4355942;32;20251;-63
2023/10/06 09:26:11;;;;;;;0.90;0.90;;;;;;;15.60;79.06;96429.66;4364710;32;20197;-63
2023/10/06 09:28:56;;;;;;;0.87;0.87;;;;;;;15.64;78.64;96427.97;4341156;32;20180;-63
2023/10/06 09:31:38;;;;;;;1.00;1.00;;;;;;;15.72;77.86;96427.28;4358561;32;20213;-64
2023/10/06 09:34:07;;;;;;;0.90;0.90;;;;;;;15.74;77.62;96425.91;4346661;32;20207;-63
2023/10/06 09:36:38;;;;;;;1.67;1.57;;;;;;;15.77;78.16;96424.50;4324704;32;20259;-63
2023/10/06 09:39:13;;;;;;;0.90;0.90;;;;;;;15.91;77.12;96421.81;4360736;32;20195;-64
2023/10/06 09:41:41;;;;;;;5.93;2.20;;;;;;;15.90;77.35;96428.25;4327637;32;20195;-63
2023/10/06 09:44:11;;;;;;;1.57;0.93;;;;;;;16.01;76.97;96427.72;4351895;32;20181;-63
2023/10/06 09:46:43;;;;;;;1.37;1.13;;;;;;;16.08;77.36;96424.66;4353081;32;20189;-63
2023/10/06 09:49:16;;;;;;;1.33;1.13;;;;;;;16.27;75.79;96438.69;4348723;32;20184;-63
2023/10/06 09:51:42;;;;;;;2.03;1.87;;;;;;;16.34;75.51;96439.06;4329786;32;20185;-63
2023/10/06 09:54:09;;;;;;;2.20;2.10;;;;;;;16.27;75.78;96430.66;4358366;32;20253;-64
2023/10/06 09:56:40;;;;;;;1.07;1.07;;;;;;;16.35;75.47;96435.31;4360161;32;20225;-63
2023/10/06 09:59:15;;;;;;;1.03;1.03;;;;;;;16.40;75.26;96429.84;4322621;32;20181;-63
2023/10/06 10:01:46;;;;;;;0.90;0.90;;;;;;;16.45;75.61;96428.91;4360936;32;20247;-63
2023/10/06 10:04:18;;;;;;;1.33;1.33;;;;;;;16.60;74.51;96422.44;4339108;32;20201;-63
2023/10/06 10:06:44;;;;;;;2.30;1.93;;;;;;;16.61;74.67;96429.38;4353423;32;20244;-64
2023/10/06 10:09:15;;;;;;;1.70;1.60;;;;;;;16.63;74.95;96424.47;4338052;32;20197;-63
2023/10/06 10:11:56;;;;;;;2.10;1.90;;;;;;;16.70;74.17;96424.88;4332451;32;20201;-63
2023/10/06 10:14:52;;;;;;;1.03;1.03;;;;;;;16.77;72.86;96417.22;4354382;32;20185;-63
2023/10/06 10:17:53;;;;;;;1.67;1.57;;;;;;;16.81;72.19;96410.16;4350319;32;20270;-64
2023/10/06 10:20:25;;;;;;;1.27;1.27;;;;;;;16.72;72.66;96411.97;4338489;32;20172;-63
2023/10/06 10:23:03;;;;;;;1.43;1.43;;;;;;;16.84;71.57;96409.50;4336170;32;20200;-63
2023/10/06 10:25:30;;;;;;;1.73;1.63;;;;;;;16.85;70.54;96411.09;4352629;32;20185;-63
2023/10/06 10:28:19;;;;;;;1.47;1.40;;;;;;;16.89;70.34;96416.66;4347821;32;20193;-64
2023/10/06 10:31:04;;;;;;;1.33;1.23;;;;;;;17.03;69.67;96412.81;4359637;32;20184;-63
2023/10/06 10:33:38;;;;;;;1.83;1.73;;;;;;;17.04;69.34;96417.03;4350151;32;20231;-62
2023/10/06 10:36:14;;;;;;;1.10;1.00;;;;;;;17.19;68.50;96421.25;4347266;32;20235;-63
2023/10/06 10:38:42;;;;;;;1.30;1.20;;;;;;;17.08;68.47;96415.34;4351955;32;20177;-63
2023/10/06 10:41:12;;;;;;;1.07;1.07;;;;;;;17.23;67.53;96410.69;4340840;32;20192;-63
2023/10/06 10:43:49;;;;;;;1.07;1.07;;;;;;;17.17;68.52;96408.12;4349756;32;20243;-63
2023/10/06 10:46:41;;;;;;;2.47;1.20;;;;;;;17.04;69.48;96406.31;4354544;32;20243;-63
2023/10/06 10:49:11;;;;;;;1.10;1.10;;;;;;;17.10;69.28;96394.38;4314477;32;20196;-63
2023/10/06 10:52:05;;;;;;;6.60;1.93;;;;;;;17.12;67.86;96388.69;4359097;32;20192;-63
2023/10/06 10:54:39;;;;;;;7.90;2.20;;;;;;;17.23;67.03;96379.31;4363877;32;20223;-63
2023/10/06 10:57:21;;;;;;;1.10;1.10;;;;;;;17.17;68.03;96375.97;4347329;32;20181;-63
2023/10/06 11:02:41;;;;;;;1.07;1.07;;;;;;;17.25;66.73;96376.31;4297070;32;20260;-64
2023/10/06 11:05:11;;;;;;;2.07;1.93;;;;;;;17.18;66.44;96382.13;4315220;32;20185;-64
2023/10/06 11:07:37;;;;;;;2.43;1.30;;;;;;;17.24;65.69;96377.41;4332895;32;20201;-61
2023/10/06 11:10:26;;;;;;;1.77;1.60;;;;;;;17.40;64.51;96365.94;4352149;32;20200;-64
2023/10/06 11:13:20;;;;;;;1.63;1.40;;;;;;;17.61;64.09;96378.78;4350390;32;20188;-64
2023/10/06 11:15:49;;;;;;;0.93;0.93;;;;;;;17.64;62.58;96365.59;4337656;32;20181;-63
2023/10/06 11:18:17;;;;;;;1.10;1.10;;;;;;;17.73;62.55;96370.94;4356468;32;20201;-64
2023/10/06 11:20:46;;;;;;;2.23;1.40;;;;;;;17.70;61.28;96375.03;4346731;32;20207;-64
2023/10/06 11:23:14;;;;;;;1.60;1.50;;;;;;;17.77;62.04;96366.53;4355567;32;20234;-62
2023/10/06 11:25:49;;;;;;;1.70;1.13;;;;;;;17.62;61.57;96366.97;4355098;32;20185;-63
2023/10/06 11:28:19;;;;;;;0.70;0.70;;;;;;;17.53;62.90;96366.94;4348989;32;20203;-61
2023/10/06 11:30:45;;;;;;;1.37;0.97;;;;;;;17.55;62.19;96351.31;4361033;32;20189;-62
2023/10/06 11:33:13;;;;;;;1.63;1.53;;;;;;;17.50;62.91;96346.88;4360441;32;20215;-61
2023/10/06 11:35:41;;;;;;;24.67;1.10;;;;;;;17.49;63.15;96344.50;4346439;32;20185;-61
2023/10/06 11:38:11;;;;;;;2.43;1.93;;;;;;;17.50;63.41;96346.06;4352295;32;20231;-63
2023/10/06 11:40:41;;;;;;;0.50;0.50;;;;;;;17.84;72.83;96340.81;4352536;32;20223;-60
2023/10/06 11:43:14;;;;;;;1.13;1.13;;;;;;;18.11;71.92;96339.72;4358466;32;20216;-61
2023/10/06 11:45:42;;;;;;;1.43;1.33;;;;;;;18.37;67.20;96336.25;4362355;32;20192;-61
2023/10/06 11:48:31;;;;;;;4.07;0.57;;;;;;;18.62;66.61;96329.28;4339960;32;20205;-61
2023/10/06 11:51:12;;;;;;;1.40;1.30;;;;;;;18.83;66.27;96330.97;4344820;32;20193;-61
2023/10/06 11:53:40;;;;;;;0.53;0.53;;;;;;;18.94;61.90;96326.03;4352663;32;20252;-61
2023/10/06 11:56:15;;;;;;;1.33;1.33;;;;;;;18.86;61.05;96316.88;4354790;32;20220;-61
2023/10/06 11:58:45;;;;;;;3.73;3.17;;;;;;;19.04;63.87;96324.88;4334900;32;20247;-61
2023/10/06 12:01:36;;;;;;;3.10;2.90;;;;;;;19.12;59.60;96318.69;4362734;32;20181;-62
2023/10/06 12:04:04;;;;;;;0.80;0.80;;;;;;;19.02;58.01;96314.44;4342871;32;20219;-62
2023/10/06 12:06:43;;;;;;;1.20;1.03;;;;;;;18.91;53.79;96307.88;4362140;32;20199;-62